Time;durP1;ratioP1;P1;durP2;ratioP2;P2;SDS_P1;SDS_P2;PMS_P1;PMS_P2;Temp;Humidity;BMP_temperature;BMP_pressure;BME280_temperature;BME280_humidity;BME280_pressure;Samples;Min_cycle;Max_cycle;Signal;HPM_P1;HPM_P2
2022/12/05 00:01:30;;;;;;;8.38;3.27;;;;;;;-6.95;60.86;103270.91;1776283;80;21793;-84
2022/12/05 00:03:59;;;;;;;9.30;4.25;;;;;;;-7.02;60.97;103259.91;1775844;80;21532;-85
2022/12/05 00:06:27;;;;;;;10.40;4.83;;;;;;;-7.06;61.01;103262.20;1738783;82;21442;-85
2022/12/05 00:08:57;;;;;;;11.45;4.60;;;;;;;-7.05;61.14;103256.30;1777216;80;20873;-86
2022/12/05 00:11:28;;;;;;;8.78;5.08;;;;;;;-7.03;61.18;103263.63;1776806;80;21354;-86
2022/12/05 00:13:56;;;;;;;8.25;3.50;;;;;;;-7.02;61.08;103256.48;1738876;82;21085;-87
2022/12/05 00:16:25;;;;;;;9.25;4.53;;;;;;;-7.02;61.09;103260.30;1775968;80;20915;-83
2022/12/05 00:18:53;;;;;;;26.57;6.33;;;;;;;-7.00;61.09;103264.69;1775756;80;21465;-86
2022/12/05 00:21:27;;;;;;;8.43;5.37;;;;;;;-7.06;61.15;103265.62;1775796;80;20927;-87
2022/12/05 00:23:54;;;;;;;12.88;4.92;;;;;;;-7.09;61.16;103253.59;1738676;82;20897;-86
2022/12/05 00:26:21;;;;;;;8.73;3.95;;;;;;;-7.13;61.18;103258.44;1775802;80;22026;-87
2022/12/05 00:28:48;;;;;;;6.85;3.70;;;;;;;-7.18;61.35;103255.63;1738833;82;21426;-86
2022/12/05 00:31:17;;;;;;;12.15;4.85;;;;;;;-7.21;61.46;103259.67;1776072;80;20896;-88
2022/12/05 00:33:44;;;;;;;13.38;5.33;;;;;;;-7.24;61.58;103261.66;1777121;80;20861;-85
2022/12/05 00:36:14;;;;;;;13.00;4.70;;;;;;;-7.25;61.51;103261.16;1776452;80;20959;-86
2022/12/05 00:38:41;;;;;;;12.53;5.22;;;;;;;-7.25;61.64;103257.73;1775905;80;21382;-88
2022/12/05 00:41:21;;;;;;;11.97;5.30;;;;;;;-7.30;61.67;103248.56;1738808;82;21050;-86
2022/12/05 00:43:49;;;;;;;11.48;4.65;;;;;;;-7.31;61.75;103246.42;1775968;80;20998;-87
2022/12/05 00:46:22;;;;;;;9.08;4.78;;;;;;;-7.28;61.72;103249.53;1738833;82;20912;-87
2022/12/05 00:48:49;;;;;;;8.35;4.22;;;;;;;-7.31;61.77;103244.27;1776090;80;20948;-86
2022/12/05 00:51:29;;;;;;;10.38;4.75;;;;;;;-7.37;61.97;103235.00;1775911;80;21216;-85
2022/12/05 00:54:01;;;;;;;6.72;3.65;;;;;;;-7.38;61.97;103242.15;1775689;80;20857;-86
2022/12/05 00:56:35;;;;;;;12.07;5.17;;;;;;;-7.41;62.25;103241.98;1775998;80;21038;-86
2022/12/05 00:59:02;;;;;;;10.63;5.47;;;;;;;-7.44;62.46;103239.28;1776453;80;21390;-87
2022/12/05 01:01:32;;;;;;;7.85;4.22;;;;;;;-7.41;62.39;103237.77;1738949;82;21003;-83
2022/12/05 01:04:08;;;;;;;9.53;4.28;;;;;;;-7.39;62.33;103241.28;1776594;80;21781;-86
2022/12/05 01:06:36;;;;;;;8.95;4.30;;;;;;;-7.42;62.43;103237.70;1755240;79;21062;-85
2022/12/05 01:09:03;;;;;;;9.68;4.28;;;;;;;-7.42;62.72;103223.69;1689290;85;20956;-86
2022/12/05 01:11:31;;;;;;;8.80;4.17;;;;;;;-7.34;62.65;103225.84;1688801;85;20928;-86
2022/12/05 01:13:59;;;;;;;10.85;4.87;;;;;;;-7.29;62.37;103223.57;1688478;85;20916;-85
2022/12/05 01:16:34;;;;;;;8.78;4.22;;;;;;;-7.33;62.21;103210.17;1688682;85;21955;-86
2022/12/05 01:19:04;;;;;;;8.23;3.52;;;;;;;-7.36;62.28;103212.16;1688881;85;20952;-86
2022/12/05 01:24:12;;;;;;;8.28;4.97;;;;;;;-7.31;62.29;103213.28;1817122;79;22791;-85
2022/12/05 01:26:41;;;;;;;13.43;4.65;;;;;;;-7.36;62.39;103208.70;1790097;80;20860;-86
2022/12/05 01:29:07;;;;;;;9.35;4.00;;;;;;;-7.37;62.34;103207.84;1781372;80;22019;-86
2022/12/05 01:31:38;;;;;;;9.70;4.92;;;;;;;-7.42;62.37;103203.30;1761200;81;20935;-85
2022/12/05 01:34:07;;;;;;;9.40;4.83;;;;;;;-7.51;62.67;103203.25;1761442;81;20927;-86
2022/12/05 01:36:34;;;;;;;9.28;4.62;;;;;;;-7.48;62.78;103206.37;1761241;81;20971;-86
2022/12/05 01:39:03;;;;;;;12.35;4.97;;;;;;;-7.47;63.00;103203.01;1731540;81;20971;-86
2022/12/05 01:41:33;;;;;;;22.42;5.75;;;;;;;-7.39;62.88;103194.53;1761674;80;21230;-85
2022/12/05 01:44:14;;;;;;;8.48;4.05;;;;;;;-7.38;62.53;103193.35;1761068;81;20892;-86
2022/12/05 01:46:48;;;;;;;9.03;4.30;;;;;;;-7.41;62.57;103202.48;1761361;81;20935;-86
2022/12/05 01:49:26;;;;;;;13.53;5.05;;;;;;;-7.50;62.74;103207.55;1761565;79;20955;-85
2022/12/05 01:51:56;;;;;;;8.15;4.50;;;;;;;-7.47;62.82;103214.48;1761105;79;20919;-84
2022/12/05 01:54:23;;;;;;;8.20;4.53;;;;;;;-7.48;62.65;103207.64;1763937;81;21234;-85
2022/12/05 01:56:54;;;;;;;8.03;4.12;;;;;;;-7.52;62.72;103206.98;1761297;80;20865;-86
2022/12/05 01:59:21;;;;;;;8.05;4.58;;;;;;;-7.52;62.61;103200.20;1728514;81;21535;-84
2022/12/05 02:01:48;;;;;;;12.53;5.60;;;;;;;-7.56;62.69;103199.58;1760958;81;20900;-86
2022/12/05 02:04:14;;;;;;;8.70;4.90;;;;;;;-7.54;62.89;103203.47;1761106;81;21409;-86
2022/12/05 02:06:41;;;;;;;9.73;4.80;;;;;;;-7.55;62.64;103196.23;1756295;80;21160;-86
2022/12/05 02:09:08;;;;;;;7.90;3.90;;;;;;;-7.59;62.82;103195.57;1760917;81;20880;-86
2022/12/05 02:11:35;;;;;;;8.63;3.83;;;;;;;-7.59;62.75;103195.57;1760927;80;21457;-85
2022/12/05 02:14:15;;;;;;;7.70;3.95;;;;;;;-7.66;62.75;103190.93;1761192;81;21109;-86
2022/12/05 02:16:59;;;;;;;9.20;4.67;;;;;;;-7.69;62.91;103193.31;1751494;79;20943;-85
2022/12/05 02:19:36;;;;;;;12.53;6.67;;;;;;;-7.70;63.08;103196.63;1760983;80;21237;-86
2022/12/05 02:22:42;;;;;;;7.83;4.60;;;;;;;-7.66;63.00;103200.25;1761193;81;21469;-85
2022/12/05 02:25:51;;;;;;;7.17;3.77;;;;;;;-7.72;62.89;103205.45;1764238;80;20933;-87
2022/12/05 02:29:00;;;;;;;7.15;4.28;;;;;;;-7.78;62.90;103194.04;1764428;80;20893;-84
2022/12/05 02:31:44;;;;;;;6.75;3.33;;;;;;;-7.90;63.06;103197.18;1763803;80;21414;-85
2022/12/05 02:34:28;;;;;;;7.10;3.87;;;;;;;-8.00;63.35;103199.60;1764350;80;21846;-84
2022/12/05 02:37:12;;;;;;;7.45;4.67;;;;;;;-8.06;63.47;103197.97;1765042;78;21169;-86
2022/12/05 02:40:10;;;;;;;6.83;4.20;;;;;;;-8.03;63.67;103188.81;1766439;78;20831;-86
2022/12/05 02:42:57;;;;;;;9.28;4.22;;;;;;;-7.97;63.68;103193.00;1765269;79;21347;-86
2022/12/05 02:45:25;;;;;;;5.95;4.00;;;;;;;-7.92;63.62;103192.86;1766893;78;20901;-86
2022/12/05 02:47:53;;;;;;;5.72;3.33;;;;;;;-7.89;63.52;103197.64;1764200;80;21524;-87
2022/12/05 02:50:30;;;;;;;7.25;4.60;;;;;;;-7.88;63.46;103191.38;1763747;81;21332;-85
2022/12/05 02:52:59;;;;;;;9.88;5.22;;;;;;;-7.87;63.32;103193.52;1738060;81;21370;-86
2022/12/05 02:55:26;;;;;;;7.35;4.30;;;;;;;-7.88;63.43;103200.29;1764251;80;20873;-85
2022/12/05 02:57:57;;;;;;;8.23;4.00;;;;;;;-7.86;63.35;103201.26;1739285;81;20964;-86
2022/12/05 03:00:24;;;;;;;6.97;3.87;;;;;;;-7.84;63.32;103191.17;1763867;81;21131;-86
2022/12/05 03:02:55;;;;;;;8.45;4.78;;;;;;;-7.81;63.24;103183.69;1764317;81;20889;-85
2022/12/05 03:05:33;;;;;;;9.98;4.87;;;;;;;-7.78;63.13;103196.59;1764018;80;21019;-87
2022/12/05 03:08:00;;;;;;;7.95;4.95;;;;;;;-7.77;63.22;103196.69;1762925;81;20904;-86
2022/12/05 03:10:27;;;;;;;7.60;3.95;;;;;;;-7.73;63.05;103192.66;1765273;80;20890;-85
2022/12/05 03:12:59;;;;;;;10.05;4.42;;;;;;;-7.76;62.88;103193.73;1766906;81;21239;-85
2022/12/05 03:15:30;;;;;;;12.07;4.60;;;;;;;-7.85;62.94;103204.27;1764798;81;20953;-85
2022/12/05 03:18:05;;;;;;;7.92;4.40;;;;;;;-7.91;63.09;103203.95;1764189;80;20937;-87
2022/12/05 03:20:41;;;;;;;8.03;3.62;;;;;;;-7.92;63.29;103199.22;1764042;80;20980;-87
2022/12/05 03:23:19;;;;;;;9.80;4.37;;;;;;;-7.95;63.25;103204.55;1758614;80;20963;-85
2022/12/05 03:25:51;;;;;;;4.42;3.47;;;;;;;-8.02;63.37;103197.36;1747504;80;21765;-86
2022/12/05 03:28:25;;;;;;;5.80;4.12;;;;;;;-8.03;63.51;103207.05;1747723;80;20896;-85
2022/12/05 03:30:52;;;;;;;7.37;4.17;;;;;;;-8.05;63.54;103199.30;1747250;80;20995;-87
2022/12/05 03:33:26;;;;;;;9.45;3.92;;;;;;;-8.06;63.69;103201.38;1747318;80;20885;-86
2022/12/05 03:36:18;;;;;;;7.72;4.50;;;;;;;-8.00;63.68;103197.06;1746267;80;20932;-86
2022/12/05 03:38:53;;;;;;;8.20;4.65;;;;;;;-7.97;63.71;103203.58;1747233;80;21245;-87
2022/12/05 03:41:28;;;;;;;6.65;3.90;;;;;;;-7.90;63.48;103212.45;1746063;82;21370;-87
2022/12/05 03:43:59;;;;;;;3.40;2.80;;;;;;;-7.93;63.41;103204.25;1747265;80;20928;-89
2022/12/05 03:46:33;;;;;;;7.53;4.25;;;;;;;-7.87;63.49;103211.34;1746153;80;21407;-86
2022/12/05 03:49:08;;;;;;;7.12;4.42;;;;;;;-7.88;63.50;103205.38;1747530;80;20892;-88
2022/12/05 03:51:40;;;;;;;8.05;3.80;;;;;;;-7.88;63.50;103205.38;1747402;82;21293;-88
2022/12/05 03:54:21;;;;;;;8.60;4.20;;;;;;;-7.85;63.17;103208.49;1747180;82;20880;-87
2022/12/05 03:56:53;;;;;;;10.25;4.03;;;;;;;-7.89;63.32;103204.91;1747272;82;20928;-86
2022/12/05 03:59:28;;;;;;;7.30;3.77;;;;;;;-7.79;63.52;103217.36;1747540;80;20901;-87
2022/12/05 04:01:54;;;;;;;9.25;4.87;;;;;;;-7.67;63.58;103214.62;1747212;80;20975;-87
2022/12/05 04:04:29;;;;;;;9.38;4.45;;;;;;;-7.60;63.12;103216.76;1747516;80;21131;-86
2022/12/05 04:06:55;;;;;;;5.50;3.77;;;;;;;-7.64;62.84;103210.13;1747330;80;20892;-87
2022/12/05 04:09:27;;;;;;;6.67;4.03;;;;;;;-7.68;62.83;103225.63;1747439;80;20970;-87
2022/12/05 04:12:10;;;;;;;8.30;4.50;;;;;;;-7.75;62.88;103219.30;1747441;80;21480;-85
2022/12/05 04:14:41;;;;;;;5.72;3.27;;;;;;;-7.81;63.08;103216.39;1748188;80;20982;-86
2022/12/05 04:17:25;;;;;;;6.30;4.35;;;;;;;-7.87;63.14;103212.25;1747453;80;21251;-87
2022/12/05 04:22:57;;;;;;;6.80;4.30;;;;;;;-8.00;63.60;103205.56;1747447;81;21632;-87
2022/12/05 04:25:32;;;;;;;8.43;4.33;;;;;;;-7.95;63.78;103215.61;1747276;82;21453;-88
2022/12/05 04:28:25;;;;;;;6.47;2.98;;;;;;;-7.88;63.51;103205.38;1747513;82;20849;-87
2022/12/05 04:31:05;;;;;;;14.30;7.10;;;;;;;-7.91;63.23;103202.67;1747418;81;21094;-88
2022/12/05 04:33:54;;;;;;;7.37;4.03;;;;;;;-8.01;63.48;103196.15;1747316;80;20944;-87
2022/12/05 04:36:37;;;;;;;11.10;4.33;;;;;;;-7.97;63.65;103194.67;1747543;80;21010;-87
2022/12/05 04:39:20;;;;;;;7.75;3.85;;;;;;;-7.97;63.56;103191.72;1746222;80;20940;-88
2022/12/05 04:42:02;;;;;;;4.97;3.62;;;;;;;-7.97;63.57;103187.91;1747431;82;20900;-88
2022/12/05 04:44:33;;;;;;;7.92;4.60;;;;;;;-7.93;63.76;103191.52;1747407;80;21182;-88
2022/12/05 04:47:02;;;;;;;7.72;4.50;;;;;;;-7.93;63.49;103196.20;1746743;82;20936;-88
2022/12/05 04:49:29;;;;;;;5.47;3.60;;;;;;;-7.96;63.62;103196.41;1747661;80;20853;-87
2022/12/05 04:52:00;;;;;;;8.55;4.10;;;;;;;-7.93;63.60;103202.98;1747467;80;20881;-86
2022/12/05 04:54:45;;;;;;;11.83;3.35;;;;;;;-7.97;63.44;103198.09;1747538;80;21421;-87
2022/12/05 04:57:18;;;;;;;7.92;3.90;;;;;;;-8.06;63.51;103202.66;1747354;81;21256;-87
2022/12/05 04:59:45;;;;;;;13.05;4.03;;;;;;;-8.17;63.68;103194.39;1747413;80;20995;-85
2022/12/05 05:02:14;;;;;;;6.00;3.50;;;;;;;-8.18;63.99;103200.28;1747343;80;20947;-88
2022/12/05 05:04:47;;;;;;;14.35;4.40;;;;;;;-8.17;64.05;103203.70;1747039;80;21070;-87
2022/12/05 05:07:14;;;;;;;7.78;4.17;;;;;;;-8.22;64.05;103198.34;1735437;80;20976;-87
2022/12/05 05:09:41;;;;;;;10.13;4.65;;;;;;;-8.24;64.16;103191.41;1747297;80;21125;-88
2022/12/05 05:12:07;;;;;;;6.50;3.75;;;;;;;-8.24;64.25;103197.38;1747619;80;20893;-87
2022/12/05 05:14:34;;;;;;;14.58;5.28;;;;;;;-8.22;64.17;103191.98;1747398;80;20968;-87
2022/12/05 05:17:01;;;;;;;6.25;4.40;;;;;;;-8.23;64.17;103200.78;1747271;80;21015;-89
2022/12/05 05:19:29;;;;;;;13.28;4.62;;;;;;;-8.25;64.20;103197.27;1747521;80;20849;-89
2022/12/05 05:21:56;;;;;;;8.60;4.78;;;;;;;-8.31;64.26;103191.81;1747400;80;21108;-87
2022/12/05 05:24:24;;;;;;;13.95;5.78;;;;;;;-8.34;64.48;103185.78;1756852;80;20929;-88
2022/12/05 05:26:51;;;;;;;8.58;5.22;;;;;;;-8.24;64.90;103188.86;1763705;80;21012;-87
2022/12/05 05:29:17;;;;;;;11.03;5.37;;;;;;;-8.11;64.77;103186.25;1763841;80;20925;-88
2022/12/05 05:31:44;;;;;;;9.95;5.62;;;;;;;-8.00;64.20;103189.42;1763865;80;20984;-88
2022/12/05 05:34:10;;;;;;;8.38;4.72;;;;;;;-7.96;64.11;103187.13;1763813;80;21810;-88
2022/12/05 05:36:37;;;;;;;9.10;4.15;;;;;;;-7.94;63.83;103183.01;1765628;80;20881;-86
2022/12/05 05:39:05;;;;;;;8.53;4.58;;;;;;;-8.00;63.83;103185.20;1765396;80;20965;-87
2022/12/05 05:41:34;;;;;;;15.10;5.30;;;;;;;-8.05;63.92;103181.89;1764167;81;20941;-88
2022/12/05 05:44:01;;;;;;;19.92;6.75;;;;;;;-8.09;64.07;103182.49;1764205;80;21035;-87
2022/12/05 05:46:31;;;;;;;9.75;4.83;;;;;;;-8.10;64.08;103184.57;1765243;81;21088;-87
2022/12/05 05:48:57;;;;;;;12.60;4.33;;;;;;;-8.10;64.17;103182.89;1764299;80;20854;-89
2022/12/05 05:51:26;;;;;;;11.90;4.60;;;;;;;-8.08;64.13;103183.00;1764231;80;20937;-88
2022/12/05 05:53:52;;;;;;;9.70;4.45;;;;;;;-8.06;64.04;103191.60;1763883;80;20933;-85
2022/12/05 05:56:19;;;;;;;10.53;5.12;;;;;;;-8.07;64.08;103197.47;1764576;78;21053;-87
2022/12/05 05:58:46;;;;;;;10.72;4.97;;;;;;;-8.08;64.06;103188.95;1766319;78;21164;-86
2022/12/05 06:01:16;;;;;;;6.42;4.40;;;;;;;-8.04;64.21;103185.80;1765986;78;20925;-88
2022/12/05 06:03:42;;;;;;;10.13;5.33;;;;;;;-7.96;63.97;103191.32;1765386;81;21000;-87
2022/12/05 06:06:11;;;;;;;7.42;4.78;;;;;;;-7.98;63.84;103201.44;1765879;79;21339;-88
2022/12/05 06:08:40;;;;;;;9.63;5.00;;;;;;;-7.99;63.85;103193.70;1763682;80;20959;-88
2022/12/05 06:11:19;;;;;;;8.90;4.62;;;;;;;-7.97;63.84;103196.81;1763963;81;21780;-88
2022/12/05 06:13:46;;;;;;;15.32;4.37;;;;;;;-7.94;63.81;103207.20;1763692;81;20948;-88
2022/12/05 06:16:14;;;;;;;13.50;4.53;;;;;;;-7.89;63.58;103197.64;1763761;80;20925;-88
2022/12/05 06:18:41;;;;;;;12.60;6.55;;;;;;;-7.88;63.54;103196.88;1763958;80;20965;-89
2022/12/05 06:21:09;;;;;;;12.63;5.30;;;;;;;-7.85;63.53;103198.30;1764018;81;20976;-89
2022/12/05 06:23:38;;;;;;;13.15;6.42;;;;;;;-7.77;63.45;103203.05;1763951;80;21775;-87
2022/12/05 06:26:05;;;;;;;9.53;5.58;;;;;;;-7.67;63.27;103209.94;1763651;80;20988;-87
2022/12/05 06:28:31;;;;;;;10.82;5.10;;;;;;;-7.61;63.18;103212.84;1763653;80;20960;-88
2022/12/05 06:30:58;;;;;;;11.38;4.90;;;;;;;-7.52;62.89;103215.90;1764071;80;20886;-88
2022/12/05 06:33:24;;;;;;;10.32;4.90;;;;;;;-7.47;62.63;103208.52;1763661;81;20939;-88
2022/12/05 06:36:06;;;;;;;11.70;5.78;;;;;;;-7.42;62.47;103208.39;1763864;80;21975;-87
2022/12/05 06:38:32;;;;;;;9.58;5.10;;;;;;;-7.43;62.23;103207.89;1762294;80;20984;-87
2022/12/05 06:40:59;;;;;;;14.78;5.58;;;;;;;-7.39;62.30;103197.95;1763760;80;20921;-88
2022/12/05 06:43:25;;;;;;;11.63;5.12;;;;;;;-7.36;62.09;103207.44;1763459;80;20877;-86
2022/12/05 06:45:52;;;;;;;8.95;5.05;;;;;;;-7.35;62.22;103202.43;1764099;80;20945;-86
2022/12/05 06:48:18;;;;;;;11.12;5.65;;;;;;;-7.31;62.06;103192.02;1763862;81;21843;-87
2022/12/05 06:50:50;;;;;;;14.58;6.35;;;;;;;-7.30;62.12;103189.94;1763725;81;20929;-88
2022/12/05 06:53:19;;;;;;;18.42;5.62;;;;;;;-7.25;62.10;103185.95;1764077;80;20842;-87
2022/12/05 06:56:00;;;;;;;12.73;5.92;;;;;;;-7.22;61.96;103188.70;1762828;81;21011;-88
2022/12/05 06:58:28;;;;;;;10.65;5.55;;;;;;;-7.25;61.94;103194.88;1764135;80;20877;-89
2022/12/05 07:03:40;;;;;;;11.03;5.75;;;;;;;-7.28;62.05;103193.86;1763598;81;20909;-86
2022/12/05 07:06:07;;;;;;;11.03;5.35;;;;;;;-7.26;62.26;103189.72;1763970;80;20881;-87
2022/12/05 07:08:34;;;;;;;8.75;5.65;;;;;;;-7.20;62.02;103194.76;1763998;81;20972;-88
2022/12/05 07:11:02;;;;;;;13.03;6.17;;;;;;;-7.20;62.04;103198.95;1764238;80;20893;-88
2022/12/05 07:13:29;;;;;;;16.93;7.17;;;;;;;-7.20;62.03;103182.02;1764207;80;21528;-88
2022/12/05 07:15:57;;;;;;;18.80;8.15;;;;;;;-7.20;62.20;103174.36;1764289;81;20924;-88
2022/12/05 07:18:23;;;;;;;13.72;7.17;;;;;;;-7.12;62.27;103167.98;1764433;81;20948;-88
2022/12/05 07:21:04;;;;;;;14.83;7.25;;;;;;;-7.00;62.00;103171.61;1764590;81;20921;-88
2022/12/05 07:23:31;;;;;;;18.20;8.63;;;;;;;-6.92;61.86;103172.88;1765201;79;20995;-86
2022/12/05 07:25:57;;;;;;;13.93;7.28;;;;;;;-6.85;61.85;103168.10;1766636;79;21190;-87
2022/12/05 07:28:25;;;;;;;13.43;6.00;;;;;;;-6.71;62.04;103169.72;1766809;81;20953;-87
2022/12/05 07:31:02;;;;;;;17.17;6.55;;;;;;;-6.53;61.46;103168.11;1764248;80;20952;-88
2022/12/05 07:33:29;;;;;;;9.68;5.78;;;;;;;-6.45;61.26;103171.04;1764081;81;21472;-88
2022/12/05 07:36:02;;;;;;;12.98;5.17;;;;;;;-6.42;60.74;103167.77;1764001;80;20957;-87
2022/12/05 07:38:29;;;;;;;16.97;8.18;;;;;;;-6.49;60.80;103167.47;1764255;80;21146;-88
2022/12/05 07:40:56;;;;;;;12.80;5.87;;;;;;;-6.52;60.90;103177.50;1764269;81;20889;-89
2022/12/05 07:43:22;;;;;;;14.33;6.83;;;;;;;-6.57;61.08;103172.58;1763863;80;21437;-87
2022/12/05 07:45:49;;;;;;;14.38;6.22;;;;;;;-6.57;61.06;103172.98;1764597;80;20909;-90
2022/12/05 07:48:16;;;;;;;15.00;7.62;;;;;;;-6.54;61.18;103168.02;1763768;80;20921;-89
2022/12/05 07:50:42;;;;;;;8.48;4.50;;;;;;;-6.50;61.27;103163.15;1763929;80;21176;-89
2022/12/05 07:53:08;;;;;;;9.98;5.83;;;;;;;-6.39;61.27;103164.11;1763788;81;20881;-88
2022/12/05 07:55:37;;;;;;;10.65;6.03;;;;;;;-6.30;61.11;103158.19;1763760;81;20890;-87
2022/12/05 07:58:03;;;;;;;10.08;5.80;;;;;;;-6.19;60.99;103171.50;1764562;81;20937;-87
2022/12/05 08:00:30;;;;;;;7.70;4.92;;;;;;;-6.07;60.72;103165.33;1764437;80;21422;-86
2022/12/05 08:02:57;;;;;;;8.98;4.47;;;;;;;-6.00;60.44;103154.11;1764496;80;21141;-87
2022/12/05 08:05:25;;;;;;;6.97;4.17;;;;;;;-5.93;60.45;103151.05;1764005;81;21374;-87
2022/12/05 08:07:52;;;;;;;11.45;4.83;;;;;;;-5.80;60.46;103148.66;1763937;80;21015;-87
2022/12/05 08:10:18;;;;;;;13.78;5.33;;;;;;;-5.70;59.76;103144.07;1764247;80;21364;-88
2022/12/05 08:12:45;;;;;;;8.88;4.55;;;;;;;-5.64;59.39;103142.23;1763931;80;20909;-88
2022/12/05 08:15:11;;;;;;;9.45;4.30;;;;;;;-5.62;59.40;103144.05;1763933;81;21592;-89
2022/12/05 08:17:38;;;;;;;13.65;4.60;;;;;;;-5.58;59.40;103144.17;1764326;80;20893;-87
2022/12/05 08:20:06;;;;;;;8.48;3.83;;;;;;;-5.53;59.47;103143.61;1764411;80;20901;-87
2022/12/05 08:22:33;;;;;;;8.93;4.33;;;;;;;-5.45;59.46;103141.39;1765350;81;20968;-89
2022/12/05 08:24:59;;;;;;;9.55;4.50;;;;;;;-5.41;59.10;103144.16;1756960;80;20928;-88
2022/12/05 08:27:26;;;;;;;10.13;4.47;;;;;;;-5.39;59.17;103139.54;1747893;80;21227;-89
2022/12/05 08:29:53;;;;;;;10.45;4.45;;;;;;;-5.37;59.15;103145.60;1747891;80;20980;-88
2022/12/05 08:32:21;;;;;;;7.58;3.75;;;;;;;-5.34;59.20;103117.20;1726817;81;21475;-84
2022/12/05 08:34:48;;;;;;;8.43;4.25;;;;;;;-5.25;59.03;103131.70;1726606;81;20865;-89
2022/12/05 08:37:14;;;;;;;10.82;4.40;;;;;;;-5.20;58.88;103125.52;1747776;80;20967;-88
2022/12/05 08:39:40;;;;;;;9.70;4.37;;;;;;;-5.17;58.96;103129.89;1748101;80;21119;-88
2022/12/05 08:42:07;;;;;;;8.53;4.30;;;;;;;-5.10;58.97;103119.99;1747820;80;20893;-88
2022/12/05 08:44:33;;;;;;;7.22;4.25;;;;;;;-5.05;58.90;103113.39;1747676;82;20983;-89
2022/12/05 08:47:00;;;;;;;10.45;4.83;;;;;;;-5.02;58.98;103108.43;1747618;80;20928;-86
2022/12/05 08:49:27;;;;;;;8.08;3.95;;;;;;;-5.00;58.94;103097.86;1747811;80;20877;-88
2022/12/05 08:51:53;;;;;;;14.03;5.28;;;;;;;-4.98;58.97;103102.16;1747897;80;21131;-87
2022/12/05 08:54:22;;;;;;;13.95;5.83;;;;;;;-4.94;59.00;103097.65;1748232;80;20940;-88
2022/12/05 08:56:51;;;;;;;6.42;3.60;;;;;;;-4.88;58.99;103101.77;1748357;82;20860;-87
2022/12/05 08:59:18;;;;;;;9.98;4.42;;;;;;;-4.82;58.82;103090.52;1748563;82;21564;-87
2022/12/05 09:01:45;;;;;;;8.43;4.58;;;;;;;-4.74;58.50;103095.95;1747865;82;20972;-88
2022/12/05 09:04:11;;;;;;;11.45;5.45;;;;;;;-4.70;58.49;103099.99;1747740;80;21868;-89
2022/12/05 09:06:39;;;;;;;10.00;4.05;;;;;;;-4.63;58.29;103100.72;1748464;82;21567;-88
2022/12/05 09:09:10;;;;;;;15.28;5.17;;;;;;;-4.62;58.33;103092.24;1748538;80;20928;-87
2022/12/05 09:11:44;;;;;;;9.73;3.15;;;;;;;-4.55;58.36;103090.82;1748619;80;21341;-88
2022/12/05 09:14:10;;;;;;;12.60;5.30;;;;;;;-4.47;57.89;103085.62;1748802;80;20881;-88
2022/12/05 09:16:37;;;;;;;15.83;4.72;;;;;;;-4.43;57.75;103087.89;1748860;80;21135;-89
2022/12/05 09:19:16;;;;;;;8.80;4.87;;;;;;;-4.39;57.69;103071.84;1750310;79;20944;-89
2022/12/05 09:21:42;;;;;;;9.80;4.75;;;;;;;-4.30;57.83;103066.22;1750207;79;20951;-88
2022/12/05 09:24:12;;;;;;;9.53;4.95;;;;;;;-4.18;57.85;103064.14;1749549;80;20975;-89
2022/12/05 09:26:39;;;;;;;7.55;3.65;;;;;;;-4.10;57.53;103062.77;1749678;80;20888;-89
2022/12/05 09:29:05;;;;;;;9.78;3.67;;;;;;;-4.05;57.13;103062.54;1748836;80;21784;-89
2022/12/05 09:31:32;;;;;;;9.25;4.80;;;;;;;-4.09;57.05;103046.60;1727315;80;21312;-87
2022/12/05 09:34:00;;;;;;;13.60;4.67;;;;;;;-4.11;57.06;103050.80;1748275;82;20877;-88
2022/12/05 09:36:29;;;;;;;11.10;5.55;;;;;;;-4.09;57.20;103044.05;1747767;81;20905;-89
2022/12/05 09:39:03;;;;;;;11.28;4.72;;;;;;;-4.02;57.44;103036.19;1748037;81;21397;-86
2022/12/05 09:42:06;;;;;;;7.58;4.55;;;;;;;-3.91;57.02;103042.98;1748129;80;21086;-90
2022/12/05 09:44:44;;;;;;;9.60;4.58;;;;;;;-3.84;56.78;103040.73;1723483;82;20908;-89
2022/12/05 09:47:29;;;;;;;11.40;5.42;;;;;;;-3.78;56.71;103038.41;1748517;80;20999;-89
2022/12/05 09:50:21;;;;;;;18.37;5.90;;;;;;;-3.72;56.61;103033.91;1750418;80;20936;-89
2022/12/05 09:53:10;;;;;;;12.35;4.87;;;;;;;-3.66;56.44;103036.72;1742626;79;20909;-89
2022/12/05 09:55:48;;;;;;;15.03;6.10;;;;;;;-3.67;56.37;103028.55;1749772;79;21867;-89
2022/12/05 09:58:29;;;;;;;11.83;5.60;;;;;;;-3.65;56.55;103024.34;1728259;80;21055;-91
2022/12/05 10:01:03;;;;;;;9.28;4.95;;;;;;;-3.56;56.54;103022.53;1749851;79;20862;-89
2022/12/05 10:04:18;;;;;;;9.40;4.60;;;;;;;-3.51;56.35;103020.14;1748851;79;20869;-91
2022/12/05 10:07:09;;;;;;;12.00;4.33;;;;;;;-3.47;56.09;103007.48;1749701;79;21181;-89
2022/12/05 10:10:29;;;;;;;9.80;4.72;;;;;;;-3.43;56.03;103006.78;1749190;79;21216;-88
2022/12/05 10:13:17;;;;;;;10.40;4.90;;;;;;;-3.40;55.95;103005.63;1749744;79;20944;-89
2022/12/05 10:15:56;;;;;;;9.30;4.22;;;;;;;-3.36;55.96;103002.36;1751133;79;21215;-90
2022/12/05 10:18:47;;;;;;;8.83;5.12;;;;;;;-3.30;56.04;103009.38;1749646;79;21010;-88
2022/12/05 10:21:31;;;;;;;15.38;5.30;;;;;;;-3.27;55.80;103000.92;1728798;80;20952;-88
2022/12/05 10:24:07;;;;;;;15.58;5.80;;;;;;;-3.28;55.85;102985.08;1749332;80;21670;-87
2022/12/05 10:26:38;;;;;;;10.55;5.10;;;;;;;-3.26;55.91;102987.30;1750235;80;20896;-87
2022/12/05 10:29:25;;;;;;;9.80;5.17;;;;;;;-3.22;55.95;102982.31;1750818;82;20936;-89
2022/12/05 10:31:53;;;;;;;8.68;5.37;;;;;;;-3.15;55.85;102984.27;1750682;82;20975;-88
2022/12/05 10:34:38;;;;;;;9.65;5.40;;;;;;;-3.10;55.88;102980.58;1750511;81;20975;-89
2022/12/05 10:37:18;;;;;;;15.93;6.03;;;;;;;-3.02;55.75;102980.86;1750423;81;21146;-89
2022/12/05 10:39:46;;;;;;;10.98;5.28;;;;;;;-2.94;55.62;102981.97;1749193;82;20979;-88
2022/12/05 10:42:33;;;;;;;14.75;5.17;;;;;;;-2.88;55.34;102989.89;1750560;82;20904;-88
2022/12/05 10:45:04;;;;;;;9.73;5.67;;;;;;;-2.84;55.40;102978.04;1750169;82;21311;-88
2022/12/05 10:47:31;;;;;;;10.85;4.60;;;;;;;-2.79;55.26;102982.91;1750376;82;20916;-88
2022/12/05 10:50:01;;;;;;;15.48;4.83;;;;;;;-2.75;55.21;102983.48;1750214;82;21143;-88
2022/12/05 10:52:29;;;;;;;15.75;5.70;;;;;;;-2.73;55.29;102988.25;1750281;82;20849;-89
2022/12/05 10:55:05;;;;;;;13.28;4.97;;;;;;;-2.68;55.32;102989.69;1751510;82;20881;-89
2022/12/05 10:57:31;;;;;;;10.98;5.42;;;;;;;-2.58;55.34;102991.33;1750827;80;20956;-87
2022/12/05 11:00:12;;;;;;;9.35;4.08;;;;;;;-2.52;54.79;102973.94;1750400;81;21346;-89
2022/12/05 11:02:39;;;;;;;13.10;4.90;;;;;;;-2.48;54.70;102981.34;1750594;80;21249;-88
2022/12/05 11:05:07;;;;;;;7.00;3.47;;;;;;;-2.47;54.72;102968.95;1750400;80;20896;-89
2022/12/05 11:07:48;;;;;;;8.80;3.72;;;;;;;-2.41;54.58;102966.16;1750377;80;21421;-89
2022/12/05 11:10:36;;;;;;;10.95;4.55;;;;;;;-2.40;54.59;102958.03;1750296;82;21100;-88
2022/12/05 11:13:14;;;;;;;6.67;3.42;;;;;;;-2.36;54.44;102965.89;1750659;82;20947;-89
2022/12/05 11:15:46;;;;;;;7.28;4.12;;;;;;;-2.35;54.18;102965.50;1751218;80;22116;-89
2022/12/05 11:18:28;;;;;;;7.08;3.35;;;;;;;-2.44;54.20;102973.78;1750570;82;21009;-89
2022/12/05 11:21:09;;;;;;;10.75;4.25;;;;;;;-2.49;54.42;102953.48;1750639;80;20921;-87
2022/12/05 11:23:36;;;;;;;8.70;3.95;;;;;;;-2.50;54.42;102960.31;1748075;80;20939;-89
2022/12/05 11:26:03;;;;;;;10.30;4.00;;;;;;;-2.49;54.27;102956.05;1750968;80;21448;-89
2022/12/05 11:28:35;;;;;;;8.45;4.92;;;;;;;-2.51;54.27;102938.45;1751784;82;21190;-87
2022/12/05 11:31:21;;;;;;;12.40;4.40;;;;;;;-2.54;54.46;102946.05;1751514;82;20931;-87
2022/12/05 11:34:05;;;;;;;13.03;5.08;;;;;;;-2.52;54.51;102937.56;1750510;81;20873;-88
2022/12/05 11:36:56;;;;;;;13.38;5.67;;;;;;;-2.43;54.57;102927.13;1750005;81;21119;-88
2022/12/05 11:39:22;;;;;;;10.70;4.22;;;;;;;-2.35;54.32;102935.95;1751362;82;20932;-86
2022/12/05 11:42:33;;;;;;;9.75;4.35;;;;;;;-2.26;54.17;102934.08;1752481;79;21241;-88
2022/12/05 11:45:32;;;;;;;7.75;4.22;;;;;;;-2.27;53.98;102925.89;1750670;80;20932;-87
2022/12/05 11:48:26;;;;;;;10.05;4.72;;;;;;;-2.22;54.10;102931.64;1752843;79;20790;-88
2022/12/05 11:51:39;;;;;;;5.85;3.40;;;;;;;-2.12;53.95;102928.50;1751511;80;20999;-90
2022/12/05 11:54:26;;;;;;;9.70;4.03;;;;;;;-1.94;53.56;102933.73;1752700;79;20967;-89
2022/12/05 11:57:10;;;;;;;9.73;4.05;;;;;;;-1.90;53.09;102914.58;1752325;79;21108;-89